Wendy Ann — WCZ5857 — position and weather

sailwx.info

Track history (hours):
 
Tides and Currents Weather Stations Pressure Air Temp Water Temp Dewpoint Dewpoint Depression Visibility Wind Speed Wind Dir Waves Ship Positions

Wendy Ann

Owner: OSAGE MARINE SERVICES INC, SAINT LOUIS, MO. More information available from US FCC via Universal Licensing System.

Last reported at 2018-May-15 14:17 UTC. Time now 2018-Jun-19 06:49 UTC.
Position N 38°32' W 090°15'.
Warning: this ship's position is 34 days out of date.

Type: Tug. MMSI: 338206593.

Date/timePositionNaut miles runAvg speedWind from/ knotsBaromVisibWave heightAir tempDewpointWater temp
2018-May-15 14:17N 38°32' W 090°15'61258.5
2018-May-15 14:16N 38°37' W 090°11'2 5.3
2018-May-15 13:58N 38°39' W 090°11'8 8.6
2018-May-15 13:04N 38°32' W 090°16'6662.4
2018-May-15 13:03N 38°37' W 090°11'0 9.2
2018-May-15 13:00N 38°37' W 090°11'762.4
2018-May-15 12:54N 38°32' W 090°16'512.9
2018-May-15 12:29N 38°36' W 090°11'4 5.6
2018-May-15 11:47N 38°33' W 090°15'1 0.5
2018-May-15 10:03N 38°34' W 090°14'0 1.2
2018-May-15 09:41N 38°34' W 090°14'0 0.2
2018-May-15 09:27N 38°34' W 090°14'0 1.3
2018-May-15 09:09N 38°35' W 090°13'0 1.3
2018-May-15 09:00N 38°34' W 090°13'0 0.2
2018-May-15 08:57N 38°34' W 090°13'1 1.6
2018-May-15 08:26N 38°35' W 090°13'0 1.0
2018-May-15 08:17N 38°35' W 090°13'310.4
2018-May-15 08:00N 38°38' W 090°11'314.6
2018-May-15 07:49N 38°35' W 090°12'1 6.5
2018-May-15 07:41N 38°35' W 090°13'2 9.9
2018-May-15 07:30N 38°36' W 090°12'019.0
2018-May-15 07:30N 38°36' W 090°12'4155.4
2018-May-15 07:29N 38°40' W 090°11'1 1.8
2018-May-15 07:01N 38°41' W 090°11'4304.2
2018-May-15 07:00N 38°36' W 090°11'4 7.5
2018-May-15 06:30N 38°40' W 090°11'426.2
2018-May-15 06:21N 38°36' W 090°11'0 0.4
2018-May-15 06:19N 38°36' W 090°11'0 1.5
2018-May-15 06:00N 38°37' W 090°11'3345.0
2018-May-15 05:59N 38°40' W 090°11'2 2.9
2018-May-15 05:28N 38°39' W 090°11'2 7.1
2018-May-15 05:09N 38°36' W 090°11'0 3.3
2018-May-15 05:00N 38°36' W 090°12'1 1.6
2018-May-15 04:24N 38°35' W 090°12'1 3.6
2018-May-15 04:02N 38°36' W 090°11'0 1.2
2018-May-15 04:00N 38°36' W 090°11'142.3
2018-May-15 03:58N 38°35' W 090°12'423.4
2018-May-15 03:49N 38°32' W 090°15'421.5
2018-May-15 03:39N 38°35' W 090°12'0 0.0
2018-May-15 03:30N 38°35' W 090°12'2710.2
2018-May-15 03:30N 38°36' W 090°11'21808.9
2018-May-15 03:30N 38°35' W 090°12'416.2
2018-May-15 03:17N 38°32' W 090°15'3 9.3
2018-May-15 03:00N 38°34' W 090°13'314.3
2018-May-15 02:49N 38°36' W 090°11'3 8.1
2018-May-15 02:29N 38°34' W 090°13'0 1.1
2018-May-15 02:27N 38°34' W 090°13'3122.3
2018-May-15 02:26N 38°36' W 090°11'4 1.6
2018-May-14 23:38N 38°33' W 090°15'3 0.5
2018-May-14 18:45N 38°35' W 090°13'1 2.9
2018-May-14 18:28N 38°34' W 090°13'2 5.0
2018-May-14 18:06N 38°36' W 090°12'110.5
2018-May-14 18:00N 38°37' W 090°11'0 0.0
2018-May-14 17:30N 38°37' W 090°11'3220.3
2018-May-14 17:29N 38°34' W 090°13'3 5.9
2018-May-14 17:00N 38°37' W 090°11'248.5
2018-May-14 16:57N 38°35' W 090°13'0 0.3
2018-May-14 16:28N 38°35' W 090°12'219.0
2018-May-14 16:22N 38°37' W 090°11'3 6.5
2018-May-14 15:55N 38°34' W 090°13'3310.3
2018-May-14 15:54N 38°37' W 090°11'2 4.8
2018-May-14 15:30N 38°35' W 090°12'2 6.7
2018-May-14 15:13N 38°37' W 090°11'1 3.5
2018-May-14 14:59N 38°36' W 090°11'1188.8
2018-May-14 14:59N 38°35' W 090°13'1 1.1
2018-May-14 14:28N 38°35' W 090°13'2 5.2
2018-May-14 14:00N 38°36' W 090°11'1 1.1
2018-May-14 13:32N 38°36' W 090°11'0 0.7
2018-May-14 13:30N 38°36' W 090°11'0 0.3
2018-May-14 13:01N 38°36' W 090°12'2 5.5
2018-May-14 12:41N 38°35' W 090°13'1 2.8
2018-May-14 12:22N 38°34' W 090°14'1 2.2
2018-May-14 11:44N 38°33' W 090°15'0 0.1
2018-May-14 10:13N 38°33' W 090°15'2 4.0
2018-May-14 09:43N 38°34' W 090°13'0 0.0
2018-May-14 09:27N 38°34' W 090°13'0 0.0
2018-May-14 08:59N 38°34' W 090°13'0 0.2
2018-May-14 08:02N 38°35' W 090°13'0 0.2
2018-May-14 07:58N 38°35' W 090°13'0 0.0
2018-May-14 07:25N 38°35' W 090°13'1 1.1
2018-May-14 06:43N 38°35' W 090°13'1 5.2
2018-May-14 06:29N 38°36' W 090°11'0 0.1
2018-May-14 06:19N 38°36' W 090°11'0 0.0
2018-May-14 06:00N 38°36' W 090°11'411.1
2018-May-14 05:39N 38°33' W 090°15'426.8
2018-May-14 05:30N 38°36' W 090°11'1 2.4
2018-May-14 05:09N 38°35' W 090°12'1 3.3
2018-May-14 04:54N 38°36' W 090°11'0 0.9
2018-May-14 04:53N 38°36' W 090°11'0 0.3
2018-May-14 04:30N 38°36' W 090°11'0 0.6
2018-May-14 04:23N 38°36' W 090°11'0 0.3
2018-May-14 04:00N 38°36' W 090°11'0 6.6
2018-May-14 03:59N 38°36' W 090°11'0 0.3
2018-May-14 03:30N 38°36' W 090°11'0 1.9
2018-May-14 03:25N 38°36' W 090°11'0 0.3
2018-May-14 02:54N 38°36' W 090°11'0 5.3
2018-May-14 02:53N 38°36' W 090°11'0 0.0
2018-May-14 02:16N 38°36' W 090°11'0 1.7
2018-May-14 02:12N 38°36' W 090°11'0 0.0
2018-May-14 01:59N 38°36' W 090°11'0 0.1
2018-May-14 01:57N 38°36' W 090°11'0 0.1
2018-May-14 01:30N 38°36' W 090°11'0 0.3
2018-May-14 01:21N 38°36' W 090°11'0 0.2
2018-May-14 01:00N 38°36' W 090°11'034.4
2018-May-14 00:59N 38°36' W 090°11'0 0.0
2018-May-14 00:30N 38°36' W 090°11'0 3.9
2018-May-14 00:29N 38°36' W 090°11'0 0.0
2018-May-13 15:34N 38°36' W 090°11'0 0.0
2018-May-13 15:29N 38°36' W 090°11'0 0.7
2018-May-13 15:26N 38°36' W 090°11'0 0.0
2018-May-13 14:43N 38°36' W 090°11'0 0.5
2018-May-13 14:25N 38°36' W 090°11'011.9
2018-May-13 14:24N 38°36' W 090°11'0 0.6
2018-May-13 13:45N 38°37' W 090°11'0 0.6
2018-May-13 13:30N 38°36' W 090°11'0 0.7
2018-May-13 13:05N 38°36' W 090°11'0 2.1
2018-May-13 13:00N 38°36' W 090°11'010.8
2018-May-13 12:58N 38°36' W 090°11'1 2.5
2018-May-13 12:26N 38°35' W 090°12'2 4.5
2018-May-13 11:54N 38°33' W 090°15'1 0.4
2018-May-13 10:19N 38°33' W 090°15'411.9
2018-May-13 09:59N 38°36' W 090°12'0 0.9
2018-May-13 09:54N 38°36' W 090°12'1 1.6
2018-May-13 09:29N 38°36' W 090°11'0 0.6
2018-May-13 08:51N 38°37' W 090°11'1 1.7
2018-May-13 08:30N 38°36' W 090°11'1 1.3
2018-May-13 08:02N 38°37' W 090°11'0 6.0
2018-May-13 07:58N 38°37' W 090°11'0 0.0
2018-May-13 07:28N 38°37' W 090°11'1 0.3
2018-May-13 03:26N 38°36' W 090°12'1 3.0
2018-May-13 02:59N 38°37' W 090°11'5 1.6
2018-May-12 23:39N 38°33' W 090°15'3 0.5
2018-May-12 17:35N 38°35' W 090°12'1 9.6
2018-May-12 17:30N 38°36' W 090°12'0 0.2
2018-May-12 16:51N 38°36' W 090°11'2 5.1
2018-May-12 16:25N 38°34' W 090°13'0 0.1
2018-May-12 12:12N 38°35' W 090°13'2 4.3
2018-May-12 11:48N 38°33' W 090°14'1 0.7
2018-May-12 09:51N 38°34' W 090°13'2 0.6
2018-May-12 06:51N 38°33' W 090°15'5 2.9
2018-May-12 05:08N 38°37' W 090°11'0 1.4
2018-May-12 04:57N 38°37' W 090°11'4 7.3
2018-May-12 04:27N 38°34' W 090°13'0 0.1
2018-May-12 03:20N 38°34' W 090°13'2 9.1
2018-May-12 03:04N 38°36' W 090°11'0 2.1
2018-May-12 03:00N 38°36' W 090°11'3 5.3
2018-May-12 02:30N 38°39' W 090°11'510.0
2018-May-12 02:02N 38°34' W 090°13'0 5.4
2018-May-12 01:59N 38°35' W 090°13'320.9
2018-May-12 01:52N 38°37' W 090°11'2 2.7
2018-May-12 00:57N 38°35' W 090°13'2 5.0
2018-May-12 00:29N 38°36' W 090°11'1 0.1
2018-May-11 15:58N 38°37' W 090°11'4 7.8
2018-May-11 15:30N 38°41' W 090°11'2 1.6
2018-May-11 14:32N 38°39' W 090°11'1 5.1
2018-May-11 14:24N 38°39' W 090°11'1 3.5
2018-May-11 14:00N 38°37' W 090°11'1 2.6
2018-May-11 13:30N 38°36' W 090°11'2 3.5
2018-May-11 12:59N 38°35' W 090°13'1 9.9
2018-May-11 12:51N 38°36' W 090°12'144.2
2018-May-11 12:49N 38°35' W 090°13'310.4
2018-May-11 12:30N 38°37' W 090°11'6 6.8
2018-May-11 11:40N 38°33' W 090°15'4 1.6
2018-May-11 09:05N 38°36' W 090°12'110.4
2018-May-11 09:00N 38°37' W 090°11'4 8.7
2018-May-11 08:31N 38°41' W 090°12'613.5
2018-May-11 08:02N 38°35' W 090°13'6173.3
2018-May-11 08:00N 38°41' W 090°12'6155.7
2018-May-11 07:58N 38°35' W 090°13'511.0
2018-May-11 07:30N 38°40' W 090°11'2 4.1
2018-May-11 06:58N 38°37' W 090°11'313.0
2018-May-11 06:46N 38°35' W 090°12'2 9.0
2018-May-11 06:30N 38°37' W 090°11'4 7.5
2018-May-11 06:00N 38°41' W 090°12'0 0.1
2018-May-11 05:26N 38°41' W 090°12'1 2.9
2018-May-11 04:56N 38°40' W 090°11'3 5.8
2018-May-11 04:29N 38°37' W 090°11'2 4.2
2018-May-11 04:06N 38°36' W 090°12'111.7
2018-May-11 03:59N 38°37' W 090°11'121.1
2018-May-11 03:56N 38°36' W 090°12'2 3.3
2018-May-11 03:21N 38°34' W 090°13'1 7.6
2018-May-11 03:10N 38°33' W 090°14'418.8
2018-May-11 02:58N 38°36' W 090°11'561.5
2018-May-11 02:52N 38°32' W 090°15'819.7
2018-May-11 02:29N 38°39' W 090°11'2 4.8
2018-May-11 02:00N 38°36' W 090°11'0 0.1
2018-May-11 01:03N 38°36' W 090°11'0 1.4
2018-May-11 00:59N 38°36' W 090°11'0 0.0
2018-May-10 21:35N 38°36' W 090°11'113.5
2018-May-10 21:30N 38°37' W 090°11'1 0.3
2018-May-10 18:18N 38°36' W 090°11'0 0.5
2018-May-10 18:00N 38°36' W 090°11'0 0.3
2018-May-10 17:39N 38°36' W 090°11'1 8.0
2018-May-10 17:29N 38°37' W 090°11'2 6.0
2018-May-10 17:04N 38°35' W 090°12'688.7
2018-May-10 17:00N 38°41' W 090°12'6914.5
2018-May-10 17:00N 38°35' W 090°12'6 9.8
2018-May-10 16:24N 38°41' W 090°12'671.3
2018-May-10 16:19N 38°35' W 090°12'611.3
2018-May-10 15:48N 38°41' W 090°12'1 4.1
2018-May-10 15:30N 38°40' W 090°11'518.9
2018-May-10 15:14N 38°35' W 090°12'0 0.0
2018-May-10 15:00N 38°35' W 090°12'3251.2
2018-May-10 15:00N 38°38' W 090°11'3 5.6
2018-May-10 14:30N 38°35' W 090°12'3 6.9
2018-May-10 14:06N 38°33' W 090°15'328.7
2018-May-10 14:00N 38°35' W 090°12'0 1.1
2018-May-10 13:51N 38°35' W 090°13'2 6.4
2018-May-10 13:30N 38°37' W 090°11'2230.8
2018-May-10 13:30N 38°35' W 090°12'117.0
2018-May-10 13:27N 38°36' W 090°12'1 3.2
2018-May-10 13:00N 38°37' W 090°11'2321.2
2018-May-10 13:00N 38°35' W 090°12'228.2
2018-May-10 12:56N 38°37' W 090°11'0 0.6
2018-May-10 12:31N 38°36' W 090°11'118.7
2018-May-10 12:29N 38°37' W 090°11'547.5
2018-May-10 12:22N 38°33' W 090°15'210.3
2018-May-10 12:09N 38°35' W 090°13'0 1.6
2018-May-10 12:00N 38°34' W 090°13'3107.7
2018-May-10 11:58N 38°32' W 090°15'0 1.1
2018-May-10 11:31N 38°33' W 090°15'011.7
2018-May-10 11:29N 38°32' W 090°15'0 0.1
2018-May-10 11:18N 38°32' W 090°15'0 0.0
2018-May-10 11:00N 38°32' W 090°15'0 0.1
2018-May-10 10:49N 38°32' W 090°15'0 0.0
2018-May-10 10:30N 38°32' W 090°15'0 1.6
2018-May-10 10:23N 38°32' W 090°15'1 3.1
2018-May-10 10:12N 38°32' W 090°16'0 1.6
2018-May-10 10:00N 38°32' W 090°15'3 2.8
2018-May-10 09:04N 38°34' W 090°13'3 4.0
2018-May-10 08:25N 38°32' W 090°15'0 0.2
2018-May-10 06:46N 38°33' W 090°15'2 3.8
2018-May-10 06:08N 38°35' W 090°13'2 4.3
2018-May-10 05:47N 38°36' W 090°12'2 5.7
2018-May-10 05:30N 38°37' W 090°11'347.5
2018-May-10 05:25N 38°34' W 090°13'2 5.3
2018-May-10 05:03N 38°33' W 090°15'5144.4
2018-May-10 05:00N 38°37' W 090°11'1 1.9
2018-May-10 04:30N 38°36' W 090°11'1 2.3
2018-May-10 03:58N 38°37' W 090°11'4 8.2
2018-May-10 03:30N 38°41' W 090°12'0 0.8
2018-May-10 02:56N 38°41' W 090°11'614.1
2018-May-10 02:32N 38°35' W 090°12'491.5
2018-May-10 02:30N 38°38' W 090°11'3959.1
2018-May-10 02:30N 38°35' W 090°12'1 1.7
2018-May-10 02:00N 38°36' W 090°11'1 0.9
2018-May-10 00:58N 38°35' W 090°12'4 0.2
2018-May-09 08:25N 38°39' W 090°11'0 1.5
2018-May-09 08:21N 38°39' W 090°11'2 5.4
2018-May-09 08:00N 38°37' W 090°11'1 2.3
2018-May-09 07:40N 38°36' W 090°11'1 4.7
2018-May-09 07:30N 38°36' W 090°12'143.9
2018-May-09 07:29N 38°36' W 090°11'3 3.4
2018-May-09 06:41N 38°34' W 090°13'0 0.2
2018-May-09 06:30N 38°34' W 090°13'6 6.0
2018-May-09 05:31N 38°40' W 090°11'0 7.2
2018-May-09 05:30N 38°40' W 090°11'0 0.2
2018-May-09 05:00N 38°40' W 090°11'0 0.7
2018-May-09 04:31N 38°40' W 090°11'1 1.1
2018-May-09 04:00N 38°40' W 090°11'680.6
2018-May-09 03:56N 38°34' W 090°13'2 4.3
2018-May-09 03:29N 38°36' W 090°12'547.1
2018-May-09 03:22N 38°41' W 090°12'0 1.3
2018-May-09 03:00N 38°41' W 090°11'437.9
2018-May-09 02:54N 38°37' W 090°11'0 1.5
2018-May-09 02:45N 38°37' W 090°11'2 9.1
2018-May-09 02:30N 38°39' W 090°11'2269.8
2018-May-09 02:30N 38°37' W 090°11'024.5
2018-May-09 02:29N 38°37' W 090°11'0 0.6
2018-May-09 02:00N 38°37' W 090°11'2 3.5
2018-May-09 01:28N 38°35' W 090°12'0 0.9
2018-May-09 00:59N 38°35' W 090°12'1 1.5
2018-May-09 00:30N 38°36' W 090°11'1 0.4
2018-May-08 21:48N 38°35' W 090°12'1 7.9
2018-May-08 21:38N 38°36' W 090°11'0 3.8
2018-May-08 21:30N 38°37' W 090°11'0 0.2
2018-May-08 21:22N 38°37' W 090°11'0 0.3
2018-May-08 20:59N 38°37' W 090°11'0 0.1
2018-May-08 20:26N 38°37' W 090°11'0 0.0
2018-May-08 18:23N 38°37' W 090°11'4 8.7
2018-May-08 17:58N 38°40' W 090°11'1 2.8
2018-May-08 17:29N 38°39' W 090°11'3 6.7
2018-May-08 17:04N 38°36' W 090°11'0 3.1
2018-May-08 17:01N 38°36' W 090°11'1491.8
2018-May-08 17:00N 38°37' W 090°11'330.4
2018-May-08 16:54N 38°35' W 090°13'3 6.5
2018-May-08 16:30N 38°37' W 090°11'164.3
2018-May-08 16:29N 38°36' W 090°11'1 1.2
2018-May-08 16:00N 38°36' W 090°11'0 0.4
2018-May-08 15:18N 38°36' W 090°11'0 0.4
2018-May-08 14:21N 38°37' W 090°11'2 5.5
2018-May-08 13:59N 38°39' W 090°11'3 7.7
2018-May-08 13:36N 38°36' W 090°12'559.3
2018-May-08 13:30N 38°41' W 090°11'5724.2
2018-May-08 13:30N 38°36' W 090°11'2 3.8
2018-May-08 13:00N 38°38' W 090°11'2142.4
2018-May-08 12:59N 38°36' W 090°11'4 9.8
2018-May-08 12:35N 38°33' W 090°15'451.8
2018-May-08 12:30N 38°36' W 090°11'415329.3
2018-May-08 12:30N 38°33' W 090°15'426.4
2018-May-08 12:21N 38°36' W 090°11'0 0.9
2018-May-08 12:00N 38°36' W 090°12'2109.8
2018-May-08 11:59N 38°35' W 090°13'310.4
2018-May-08 11:43N 38°32' W 090°15'0 0.0
2018-May-08 11:30N 38°32' W 090°15'0 8.7
2018-May-08 11:28N 38°33' W 090°15'1 9.2
2018-May-08 11:23N 38°32' W 090°16'0 1.2
2018-May-08 11:00N 38°32' W 090°15'0 0.0
2018-May-08 10:27N 38°32' W 090°15'0 0.0
2018-May-08 09:55N 38°32' W 090°15'0 0.0
2018-May-08 09:30N 38°32' W 090°15'0 0.0
2018-May-08 09:00N 38°32' W 090°15'0 0.0
2018-May-08 08:27N 38°32' W 090°15'0 0.0
2018-May-08 07:59N 38°32' W 090°15'4 7.1
2018-May-08 07:29N 38°35' W 090°13'418.5
2018-May-08 07:18N 38°32' W 090°15'0 0.0
2018-May-08 06:54N 38°32' W 090°15'518.4
2018-May-08 06:37N 38°36' W 090°11'0 0.5
2018-May-08 06:29N 38°36' W 090°11'5274.5
2018-May-08 06:28N 38°32' W 090°15'0 0.0
2018-May-08 05:53N 38°32' W 090°15'511.6
2018-May-08 05:26N 38°36' W 090°11'53749.3
2018-May-08 05:26N 38°32' W 090°15'511.3
2018-May-08 04:58N 38°37' W 090°11'4 7.3
2018-May-08 04:28N 38°40' W 090°11'9137.6
2018-May-08 04:24N 38°32' W 090°16'821.6
2018-May-08 04:00N 38°40' W 090°11'4 6.9
2018-May-08 03:30N 38°36' W 090°11'0 0.2
2018-May-08 01:22N 38°36' W 090°12'2 0.4
2018-May-07 20:24N 38°34' W 090°13'2 2.0
2018-May-07 19:18N 38°36' W 090°12'2 4.9
2018-May-07 18:59N 38°37' W 090°11'623.8
2018-May-07 18:45N 38°33' W 090°15'310.0
2018-May-07 18:26N 38°35' W 090°12'2 4.2
2018-May-07 18:00N 38°37' W 090°11'2 4.4
2018-May-07 17:33N 38°39' W 090°11'238.0
2018-May-07 17:30N 38°37' W 090°11'128.9
2018-May-07 17:27N 38°38' W 090°11'2 3.6
2018-May-07 16:57N 38°36' W 090°11'327.9
2018-May-07 16:51N 38°34' W 090°13'3 6.3
2018-May-07 16:27N 38°36' W 090°11'314.6
2018-May-07 16:17N 38°34' W 090°13'1 3.3
2018-May-07 16:00N 38°35' W 090°12'5123.3
2018-May-07 15:57N 38°40' W 090°11'577.2
2018-May-07 15:53N 38°35' W 090°12'411.1
2018-May-07 15:30N 38°39' W 090°11'486.3
2018-May-07 15:27N 38°35' W 090°12'0 0.2
2018-May-07 15:05N 38°35' W 090°12'119.7
2018-May-07 15:00N 38°36' W 090°11'1107.1
2018-May-07 15:00N 38°35' W 090°12'4 7.4
2018-May-07 14:30N 38°38' W 090°11'613.2
2018-May-07 14:02N 38°33' W 090°15'5185.4
2018-May-07 14:00N 38°37' W 090°11'246.5
2018-May-07 13:58N 38°35' W 090°12'1 3.5
2018-May-07 13:46N 38°36' W 090°12'1 2.6
2018-May-07 13:27N 38°35' W 090°12'216.3
2018-May-07 13:20N 38°36' W 090°11'0 0.1
2018-May-07 12:49N 38°37' W 090°11'0 0.0
2018-May-07 12:29N 38°37' W 090°11'2102.8
2018-May-07 12:28N 38°35' W 090°12'2289.4
2018-May-07 12:28N 38°37' W 090°11'3 5.0
2018-May-07 11:58N 38°35' W 090°13'3 1.9
2018-May-07 10:26N 38°32' W 090°15'4 6.0
2018-May-07 09:48N 38°35' W 090°12'0 0.0
2018-May-07 09:25N 38°35' W 090°12'0 0.5
2018-May-07 09:00N 38°35' W 090°12'0 0.0
2018-May-07 08:27N 38°35' W 090°12'0 0.0
2018-May-07 08:00N 38°35' W 090°12'0 0.0
2018-May-07 07:30N 38°35' W 090°12'0 0.0
2018-May-07 06:59N 38°35' W 090°12'0 0.0
2018-May-07 06:30N 38°35' W 090°12'0 0.0
2018-May-07 06:00N 38°35' W 090°12'0 0.3
2018-May-07 05:27N 38°35' W 090°13'1 1.4
2018-May-07 04:26N 38°34' W 090°14'113.5
2018-May-07 04:19N 38°35' W 090°13'441.8
2018-May-07 04:14N 38°32' W 090°16'523.0
2018-May-07 04:01N 38°36' W 090°12'280.7
2018-May-07 03:59N 38°38' W 090°11'748.0
2018-May-07 03:50N 38°32' W 090°16'922.0
2018-May-07 03:26N 38°40' W 090°11'982.5
2018-May-07 03:20N 38°32' W 090°16'721.4
2018-May-07 03:00N 38°38' W 090°11'7198.1
2018-May-07 02:58N 38°32' W 090°16'612.7
2018-May-07 02:30N 38°37' W 090°11'0 0.4
2018-May-07 02:06N 38°37' W 090°11'0 0.8
2018-May-07 02:00N 38°37' W 090°11'0 0.8
2018-May-07 01:55N 38°37' W 090°11'1 1.6
2018-May-07 01:30N 38°36' W 090°11'0 0.1
2018-May-06 21:36N 38°36' W 090°11'2 2.8
2018-May-06 20:44N 38°39' W 090°11'1 4.0
2018-May-06 20:30N 38°38' W 090°11'2 0.4
2018-May-06 15:38N 38°36' W 090°12'0 1.1
2018-May-06 15:30N 38°36' W 090°11'5 1.7
2018-May-06 12:38N 38°32' W 090°15'231.5
2018-May-06 12:34N 38°34' W 090°14'233.9
2018-May-06 12:31N 38°32' W 090°15'211.2
2018-May-06 12:20N 38°34' W 090°14'1 2.4
2018-May-06 12:01N 38°33' W 090°15'1 2.3
2018-May-06 11:32N 38°32' W 090°15'0 0.1
2018-May-06 11:29N 38°32' W 090°15'0 0.0
2018-May-06 10:37N 38°32' W 090°15'0 1.5
2018-May-06 10:22N 38°33' W 090°15'010.2
2018-May-06 10:20N 38°33' W 090°15'111.9
2018-May-06 10:17N 38°32' W 090°15'0 1.9
2018-May-06 10:15N 38°32' W 090°15'415.6
2018-May-06 10:01N 38°35' W 090°12'41571.7
2018-May-06 10:00N 38°32' W 090°15'413457.9
2018-May-06 10:00N 38°35' W 090°12'152.6
2018-May-06 09:59N 38°34' W 090°14'2 4.9
2018-May-06 09:30N 38°32' W 090°15'61863.4
2018-May-06 09:30N 38°37' W 090°11'3145.5
2018-May-06 09:29N 38°34' W 090°14'3668.7
2018-May-06 09:29N 38°37' W 090°11'0 0.1
2018-May-06 09:01N 38°37' W 090°11'3751.8
2018-May-06 09:00N 38°34' W 090°14'22201.2
2018-May-06 09:00N 38°32' W 090°15'61705.0
2018-May-06 09:00N 38°37' W 090°11'611.4
2018-May-06 08:30N 38°32' W 090°15'620452.6
2018-May-06 08:30N 38°37' W 090°11'3679.1
2018-May-06 08:30N 38°34' W 090°14'3541.3
2018-May-06 08:30N 38°37' W 090°11'0 0.2
2018-May-06 08:00N 38°37' W 090°11'6102.9
2018-May-06 07:57N 38°32' W 090°15'6101.9
2018-May-06 07:54N 38°37' W 090°11'0 0.0
2018-May-06 07:29N 38°37' W 090°11'6102.9
2018-May-06 07:26N 38°32' W 090°15'612.3
2018-May-06 06:58N 38°37' W 090°11'0 0.1
2018-May-06 06:25N 38°37' W 090°11'0 0.6
2018-May-06 06:21N 38°37' W 090°11'0 0.0
2018-May-06 05:54N 38°37' W 090°11'0 1.9
2018-May-06 05:46N 38°37' W 090°11'51037.9
2018-May-06 05:46N 38°32' W 090°15'520.6
2018-May-06 05:30N 38°37' W 090°11'5930.1
2018-May-06 05:30N 38°32' W 090°15'6 4.2
2018-May-06 04:03N 38°37' W 090°11'0 9.7
2018-May-06 04:00N 38°38' W 090°11'3 4.6
2018-May-06 03:26N 38°40' W 090°11'447.9
2018-May-06 03:21N 38°36' W 090°11'0 0.3
2018-May-06 03:01N 38°36' W 090°11'4251.4
2018-May-06 03:00N 38°40' W 090°11'840.4
2018-May-06 02:47N 38°32' W 090°15'726.1
2018-May-06 02:30N 38°39' W 090°11'288.2
2018-May-06 02:29N 38°37' W 090°11'0 1.0
2018-May-06 02:01N 38°37' W 090°11'022.4
2018-May-06 01:59N 38°37' W 090°11'0 0.5
2018-May-06 01:56N 38°37' W 090°11'0 0.7
2018-May-06 01:30N 38°37' W 090°11'0 0.1
2018-May-06 01:15N 38°37' W 090°11'011.8
2018-May-06 01:14N 38°36' W 090°11'0 1.4
2018-May-06 01:00N 38°37' W 090°11'011.7
2018-May-06 00:58N 38°37' W 090°11'1 2.1
2018-May-06 00:29N 38°36' W 090°11'122.2
2018-May-06 00:28N 38°36' W 090°11'4 1.8
2018-May-05 22:03N 38°33' W 090°15'2 7.9
2018-May-05 21:47N 38°35' W 090°13'111.7
2018-May-05 21:42N 38°35' W 090°12'2 2.8
2018-May-05 21:09N 38°37' W 090°11'0 0.0
2018-May-05 20:59N 38°37' W 090°11'0 0.0
2018-May-05 20:29N 38°37' W 090°11'0 0.0
2018-May-05 19:40N 38°37' W 090°11'0 7.7
2018-May-05 19:39N 38°37' W 090°11'0 0.4
2018-May-05 19:29N 38°37' W 090°11'0 0.1
2018-May-05 18:45N 38°37' W 090°11'0 0.0
2018-May-05 18:30N 38°37' W 090°11'1 2.6
2018-May-05 18:00N 38°35' W 090°12'  
Track history (hours):
 
Tides and Currents Weather Stations Pressure Air Temp Water Temp Dewpoint Dewpoint Depression Visibility Wind Speed Wind Dir Waves Ship Positions

Wendy Ann

Owner: OSAGE MARINE SERVICES INC, SAINT LOUIS, MO. More information available from US FCC via Universal Licensing System.

Last reported at 2018-May-15 14:17 UTC. Time now 2018-Jun-19 06:49 UTC.
Position N 38°32' W 090°15'.
Warning: this ship's position is 34 days out of date.

Type: Tug. MMSI: 338206593.

Date/timePositionNaut miles runAvg speedWind from/ knotsBaromVisibWave heightAir tempDewpointWater temp
2018-May-15 14:17N 38°32' W 090°15'61258.5
2018-May-15 14:16N 38°37' W 090°11'2 5.3
2018-May-15 13:58N 38°39' W 090°11'8 8.6
2018-May-15 13:04N 38°32' W 090°16'6662.4
2018-May-15 13:03N 38°37' W 090°11'0 9.2
2018-May-15 13:00N 38°37' W 090°11'762.4
2018-May-15 12:54N 38°32' W 090°16'512.9
2018-May-15 12:29N 38°36' W 090°11'4 5.6
2018-May-15 11:47N 38°33' W 090°15'1 0.5
2018-May-15 10:03N 38°34' W 090°14'0 1.2
2018-May-15 09:41N 38°34' W 090°14'0 0.2
2018-May-15 09:27N 38°34' W 090°14'0 1.3
2018-May-15 09:09N 38°35' W 090°13'0 1.3
2018-May-15 09:00N 38°34' W 090°13'0 0.2
2018-May-15 08:57N 38°34' W 090°13'1 1.6
2018-May-15 08:26N 38°35' W 090°13'0 1.0
2018-May-15 08:17N 38°35' W 090°13'310.4
2018-May-15 08:00N 38°38' W 090°11'314.6
2018-May-15 07:49N 38°35' W 090°12'1 6.5
2018-May-15 07:41N 38°35' W 090°13'2 9.9
2018-May-15 07:30N 38°36' W 090°12'019.0
2018-May-15 07:30N 38°36' W 090°12'4155.4
2018-May-15 07:29N 38°40' W 090°11'1 1.8
2018-May-15 07:01N 38°41' W 090°11'4304.2
2018-May-15 07:00N 38°36' W 090°11'4 7.5
2018-May-15 06:30N 38°40' W 090°11'426.2
2018-May-15 06:21N 38°36' W 090°11'0 0.4
2018-May-15 06:19N 38°36' W 090°11'0 1.5
2018-May-15 06:00N 38°37' W 090°11'3345.0
2018-May-15 05:59N 38°40' W 090°11'2 2.9
2018-May-15 05:28N 38°39' W 090°11'2 7.1
2018-May-15 05:09N 38°36' W 090°11'0 3.3
2018-May-15 05:00N 38°36' W 090°12'1 1.6
2018-May-15 04:24N 38°35' W 090°12'1 3.6
2018-May-15 04:02N 38°36' W 090°11'0 1.2
2018-May-15 04:00N 38°36' W 090°11'142.3
2018-May-15 03:58N 38°35' W 090°12'423.4
2018-May-15 03:49N 38°32' W 090°15'421.5
2018-May-15 03:39N 38°35' W 090°12'0 0.0
2018-May-15 03:30N 38°35' W 090°12'2710.2
2018-May-15 03:30N 38°36' W 090°11'21808.9
2018-May-15 03:30N 38°35' W 090°12'416.2
2018-May-15 03:17N 38°32' W 090°15'3 9.3
2018-May-15 03:00N 38°34' W 090°13'314.3
2018-May-15 02:49N 38°36' W 090°11'3 8.1
2018-May-15 02:29N 38°34' W 090°13'0 1.1
2018-May-15 02:27N 38°34' W 090°13'3122.3
2018-May-15 02:26N 38°36' W 090°11'4 1.6
2018-May-14 23:38N 38°33' W 090°15'3 0.5
2018-May-14 18:45N 38°35' W 090°13'1 2.9
2018-May-14 18:28N 38°34' W 090°13'2 5.0
2018-May-14 18:06N 38°36' W 090°12'110.5
2018-May-14 18:00N 38°37' W 090°11'0 0.0
2018-May-14 17:30N 38°37' W 090°11'3220.3
2018-May-14 17:29N 38°34' W 090°13'3 5.9
2018-May-14 17:00N 38°37' W 090°11'248.5
2018-May-14 16:57N 38°35' W 090°13'0 0.3
2018-May-14 16:28N 38°35' W 090°12'219.0
2018-May-14 16:22N 38°37' W 090°11'3 6.5
2018-May-14 15:55N 38°34' W 090°13'3310.3
2018-May-14 15:54N 38°37' W 090°11'2 4.8
2018-May-14 15:30N 38°35' W 090°12'2 6.7
2018-May-14 15:13N 38°37' W 090°11'1 3.5
2018-May-14 14:59N 38°36' W 090°11'1188.8
2018-May-14 14:59N 38°35' W 090°13'1 1.1
2018-May-14 14:28N 38°35' W 090°13'2 5.2
2018-May-14 14:00N 38°36' W 090°11'1 1.1
2018-May-14 13:32N 38°36' W 090°11'0 0.7
2018-May-14 13:30N 38°36' W 090°11'0 0.3
2018-May-14 13:01N 38°36' W 090°12'2 5.5
2018-May-14 12:41N 38°35' W 090°13'1 2.8
2018-May-14 12:22N 38°34' W 090°14'1 2.2
2018-May-14 11:44N 38°33' W 090°15'0 0.1
2018-May-14 10:13N 38°33' W 090°15'2 4.0
2018-May-14 09:43N 38°34' W 090°13'0 0.0
2018-May-14 09:27N 38°34' W 090°13'0 0.0
2018-May-14 08:59N 38°34' W 090°13'0 0.2
2018-May-14 08:02N 38°35' W 090°13'0 0.2
2018-May-14 07:58N 38°35' W 090°13'0 0.0
2018-May-14 07:25N 38°35' W 090°13'1 1.1
2018-May-14 06:43N 38°35' W 090°13'1 5.2
2018-May-14 06:29N 38°36' W 090°11'0 0.1
2018-May-14 06:19N 38°36' W 090°11'0 0.0
2018-May-14 06:00N 38°36' W 090°11'411.1
2018-May-14 05:39N 38°33' W 090°15'426.8
2018-May-14 05:30N 38°36' W 090°11'1 2.4
2018-May-14 05:09N 38°35' W 090°12'1 3.3
2018-May-14 04:54N 38°36' W 090°11'0 0.9
2018-May-14 04:53N 38°36' W 090°11'0 0.3
2018-May-14 04:30N 38°36' W 090°11'0 0.6
2018-May-14 04:23N 38°36' W 090°11'0 0.3
2018-May-14 04:00N 38°36' W 090°11'0 6.6
2018-May-14 03:59N 38°36' W 090°11'0 0.3
2018-May-14 03:30N 38°36' W 090°11'0 1.9
2018-May-14 03:25N 38°36' W 090°11'0 0.3
2018-May-14 02:54N 38°36' W 090°11'0 5.3
2018-May-14 02:53N 38°36' W 090°11'0 0.0
2018-May-14 02:16N 38°36' W 090°11'0 1.7
2018-May-14 02:12N 38°36' W 090°11'0 0.0
2018-May-14 01:59N 38°36' W 090°11'0 0.1
2018-May-14 01:57N 38°36' W 090°11'0 0.1
2018-May-14 01:30N 38°36' W 090°11'0 0.3
2018-May-14 01:21N 38°36' W 090°11'0 0.2
2018-May-14 01:00N 38°36' W 090°11'034.4
2018-May-14 00:59N 38°36' W 090°11'0 0.0
2018-May-14 00:30N 38°36' W 090°11'0 3.9
2018-May-14 00:29N 38°36' W 090°11'0 0.0
2018-May-13 15:34N 38°36' W 090°11'0 0.0
2018-May-13 15:29N 38°36' W 090°11'0 0.7
2018-May-13 15:26N 38°36' W 090°11'0 0.0
2018-May-13 14:43N 38°36' W 090°11'0 0.5
2018-May-13 14:25N 38°36' W 090°11'011.9
2018-May-13 14:24N 38°36' W 090°11'0 0.6
2018-May-13 13:45N 38°37' W 090°11'0 0.6
2018-May-13 13:30N 38°36' W 090°11'0 0.7
2018-May-13 13:05N 38°36' W 090°11'0 2.1
2018-May-13 13:00N 38°36' W 090°11'010.8
2018-May-13 12:58N 38°36' W 090°11'1 2.5
2018-May-13 12:26N 38°35' W 090°12'2 4.5
2018-May-13 11:54N 38°33' W 090°15'1 0.4
2018-May-13 10:19N 38°33' W 090°15'411.9
2018-May-13 09:59N 38°36' W 090°12'0 0.9
2018-May-13 09:54N 38°36' W 090°12'1 1.6
2018-May-13 09:29N 38°36' W 090°11'0 0.6
2018-May-13 08:51N 38°37' W 090°11'1 1.7
2018-May-13 08:30N 38°36' W 090°11'1 1.3
2018-May-13 08:02N 38°37' W 090°11'0 6.0
2018-May-13 07:58N 38°37' W 090°11'0 0.0
2018-May-13 07:28N 38°37' W 090°11'1 0.3
2018-May-13 03:26N 38°36' W 090°12'1 3.0
2018-May-13 02:59N 38°37' W 090°11'5 1.6
2018-May-12 23:39N 38°33' W 090°15'3 0.5
2018-May-12 17:35N 38°35' W 090°12'1 9.6
2018-May-12 17:30N 38°36' W 090°12'0 0.2
2018-May-12 16:51N 38°36' W 090°11'2 5.1
2018-May-12 16:25N 38°34' W 090°13'0 0.1
2018-May-12 12:12N 38°35' W 090°13'2 4.3
2018-May-12 11:48N 38°33' W 090°14'1 0.7
2018-May-12 09:51N 38°34' W 090°13'2 0.6
2018-May-12 06:51N 38°33' W 090°15'5 2.9
2018-May-12 05:08N 38°37' W 090°11'0 1.4
2018-May-12 04:57N 38°37' W 090°11'4 7.3
2018-May-12 04:27N 38°34' W 090°13'0 0.1
2018-May-12 03:20N 38°34' W 090°13'2 9.1
2018-May-12 03:04N 38°36' W 090°11'0 2.1
2018-May-12 03:00N 38°36' W 090°11'3 5.3
2018-May-12 02:30N 38°39' W 090°11'510.0
2018-May-12 02:02N 38°34' W 090°13'0 5.4
2018-May-12 01:59N 38°35' W 090°13'320.9
2018-May-12 01:52N 38°37' W 090°11'2 2.7
2018-May-12 00:57N 38°35' W 090°13'2 5.0
2018-May-12 00:29N 38°36' W 090°11'1 0.1
2018-May-11 15:58N 38°37' W 090°11'4 7.8
2018-May-11 15:30N 38°41' W 090°11'2 1.6
2018-May-11 14:32N 38°39' W 090°11'1 5.1
2018-May-11 14:24N 38°39' W 090°11'1 3.5
2018-May-11 14:00N 38°37' W 090°11'1 2.6
2018-May-11 13:30N 38°36' W 090°11'2 3.5
2018-May-11 12:59N 38°35' W 090°13'1 9.9
2018-May-11 12:51N 38°36' W 090°12'144.2
2018-May-11 12:49N 38°35' W 090°13'310.4
2018-May-11 12:30N 38°37' W 090°11'6 6.8
2018-May-11 11:40N 38°33' W 090°15'4 1.6
2018-May-11 09:05N 38°36' W 090°12'110.4
2018-May-11 09:00N 38°37' W 090°11'4 8.7
2018-May-11 08:31N 38°41' W 090°12'613.5
2018-May-11 08:02N 38°35' W 090°13'6173.3
2018-May-11 08:00N 38°41' W 090°12'6155.7
2018-May-11 07:58N 38°35' W 090°13'511.0
2018-May-11 07:30N 38°40' W 090°11'2 4.1
2018-May-11 06:58N 38°37' W 090°11'313.0
2018-May-11 06:46N 38°35' W 090°12'2 9.0
2018-May-11 06:30N 38°37' W 090°11'4 7.5
2018-May-11 06:00N 38°41' W 090°12'0 0.1
2018-May-11 05:26N 38°41' W 090°12'1 2.9
2018-May-11 04:56N 38°40' W 090°11'3 5.8
2018-May-11 04:29N 38°37' W 090°11'2 4.2
2018-May-11 04:06N 38°36' W 090°12'111.7
2018-May-11 03:59N 38°37' W 090°11'121.1
2018-May-11 03:56N 38°36' W 090°12'2 3.3
2018-May-11 03:21N 38°34' W 090°13'1 7.6
2018-May-11 03:10N 38°33' W 090°14'418.8
2018-May-11 02:58N 38°36' W 090°11'561.5
2018-May-11 02:52N 38°32' W 090°15'819.7
2018-May-11 02:29N 38°39' W 090°11'2 4.8
2018-May-11 02:00N 38°36' W 090°11'0 0.1
2018-May-11 01:03N 38°36' W 090°11'0 1.4
2018-May-11 00:59N 38°36' W 090°11'0 0.0
2018-May-10 21:35N 38°36' W 090°11'113.5
2018-May-10 21:30N 38°37' W 090°11'1 0.3
2018-May-10 18:18N 38°36' W 090°11'0 0.5
2018-May-10 18:00N 38°36' W 090°11'0 0.3
2018-May-10 17:39N 38°36' W 090°11'1 8.0
2018-May-10 17:29N 38°37' W 090°11'2 6.0
2018-May-10 17:04N 38°35' W 090°12'688.7
2018-May-10 17:00N 38°41' W 090°12'6914.5
2018-May-10 17:00N 38°35' W 090°12'6 9.8
2018-May-10 16:24N 38°41' W 090°12'671.3
2018-May-10 16:19N 38°35' W 090°12'611.3
2018-May-10 15:48N 38°41' W 090°12'1 4.1
2018-May-10 15:30N 38°40' W 090°11'518.9
2018-May-10 15:14N 38°35' W 090°12'0 0.0
2018-May-10 15:00N 38°35' W 090°12'3251.2
2018-May-10 15:00N 38°38' W 090°11'3 5.6
2018-May-10 14:30N 38°35' W 090°12'3 6.9
2018-May-10 14:06N 38°33' W 090°15'328.7
2018-May-10 14:00N 38°35' W 090°12'0 1.1
2018-May-10 13:51N 38°35' W 090°13'2 6.4
2018-May-10 13:30N 38°37' W 090°11'2230.8
2018-May-10 13:30N 38°35' W 090°12'117.0
2018-May-10 13:27N 38°36' W 090°12'1 3.2
2018-May-10 13:00N 38°37' W 090°11'2321.2
2018-May-10 13:00N 38°35' W 090°12'228.2
2018-May-10 12:56N 38°37' W 090°11'0 0.6
2018-May-10 12:31N 38°36' W 090°11'118.7
2018-May-10 12:29N 38°37' W 090°11'547.5
2018-May-10 12:22N 38°33' W 090°15'210.3
2018-May-10 12:09N 38°35' W 090°13'0 1.6
2018-May-10 12:00N 38°34' W 090°13'3107.7
2018-May-10 11:58N 38°32' W 090°15'0 1.1
2018-May-10 11:31N 38°33' W 090°15'011.7
2018-May-10 11:29N 38°32' W 090°15'0 0.1
2018-May-10 11:18N 38°32' W 090°15'0 0.0
2018-May-10 11:00N 38°32' W 090°15'0 0.1
2018-May-10 10:49N 38°32' W 090°15'0 0.0
2018-May-10 10:30N 38°32' W 090°15'0 1.6
2018-May-10 10:23N 38°32' W 090°15'1 3.1
2018-May-10 10:12N 38°32' W 090°16'0 1.6
2018-May-10 10:00N 38°32' W 090°15'3 2.8
2018-May-10 09:04N 38°34' W 090°13'3 4.0
2018-May-10 08:25N 38°32' W 090°15'0 0.2
2018-May-10 06:46N 38°33' W 090°15'2 3.8
2018-May-10 06:08N 38°35' W 090°13'2 4.3
2018-May-10 05:47N 38°36' W 090°12'2 5.7
2018-May-10 05:30N 38°37' W 090°11'347.5
2018-May-10 05:25N 38°34' W 090°13'2 5.3
2018-May-10 05:03N 38°33' W 090°15'5144.4
2018-May-10 05:00N 38°37' W 090°11'1 1.9
2018-May-10 04:30N 38°36' W 090°11'1 2.3
2018-May-10 03:58N 38°37' W 090°11'4 8.2
2018-May-10 03:30N 38°41' W 090°12'0 0.8
2018-May-10 02:56N 38°41' W 090°11'614.1
2018-May-10 02:32N 38°35' W 090°12'491.5
2018-May-10 02:30N 38°38' W 090°11'3959.1
2018-May-10 02:30N 38°35' W 090°12'1 1.7
2018-May-10 02:00N 38°36' W 090°11'1 0.9
2018-May-10 00:58N 38°35' W 090°12'4 0.2
2018-May-09 08:25N 38°39' W 090°11'0 1.5
2018-May-09 08:21N 38°39' W 090°11'2 5.4
2018-May-09 08:00N 38°37' W 090°11'1 2.3
2018-May-09 07:40N 38°36' W 090°11'1 4.7
2018-May-09 07:30N 38°36' W 090°12'143.9
2018-May-09 07:29N 38°36' W 090°11'3 3.4
2018-May-09 06:41N 38°34' W 090°13'0 0.2
2018-May-09 06:30N 38°34' W 090°13'6 6.0
2018-May-09 05:31N 38°40' W 090°11'0 7.2
2018-May-09 05:30N 38°40' W 090°11'0 0.2
2018-May-09 05:00N 38°40' W 090°11'0 0.7
2018-May-09 04:31N 38°40' W 090°11'1 1.1
2018-May-09 04:00N 38°40' W 090°11'680.6
2018-May-09 03:56N 38°34' W 090°13'2 4.3
2018-May-09 03:29N 38°36' W 090°12'547.1
2018-May-09 03:22N 38°41' W 090°12'0 1.3
2018-May-09 03:00N 38°41' W 090°11'437.9
2018-May-09 02:54N 38°37' W 090°11'0 1.5
2018-May-09 02:45N 38°37' W 090°11'2 9.1
2018-May-09 02:30N 38°39' W 090°11'2269.8
2018-May-09 02:30N 38°37' W 090°11'024.5
2018-May-09 02:29N 38°37' W 090°11'0 0.6
2018-May-09 02:00N 38°37' W 090°11'2 3.5
2018-May-09 01:28N 38°35' W 090°12'0 0.9
2018-May-09 00:59N 38°35' W 090°12'1 1.5
2018-May-09 00:30N 38°36' W 090°11'1 0.4
2018-May-08 21:48N 38°35' W 090°12'1 7.9
2018-May-08 21:38N 38°36' W 090°11'0 3.8
2018-May-08 21:30N 38°37' W 090°11'0 0.2
2018-May-08 21:22N 38°37' W 090°11'0 0.3
2018-May-08 20:59N 38°37' W 090°11'0 0.1
2018-May-08 20:26N 38°37' W 090°11'0 0.0
2018-May-08 18:23N 38°37' W 090°11'4 8.7
2018-May-08 17:58N 38°40' W 090°11'1 2.8
2018-May-08 17:29N 38°39' W 090°11'3 6.7
2018-May-08 17:04N 38°36' W 090°11'0 3.1
2018-May-08 17:01N 38°36' W 090°11'1491.8
2018-May-08 17:00N 38°37' W 090°11'330.4
2018-May-08 16:54N 38°35' W 090°13'3 6.5
2018-May-08 16:30N 38°37' W 090°11'164.3
2018-May-08 16:29N 38°36' W 090°11'1 1.2
2018-May-08 16:00N 38°36' W 090°11'0 0.4
2018-May-08 15:18N 38°36' W 090°11'0 0.4
2018-May-08 14:21N 38°37' W 090°11'2 5.5
2018-May-08 13:59N 38°39' W 090°11'3 7.7
2018-May-08 13:36N 38°36' W 090°12'559.3
2018-May-08 13:30N 38°41' W 090°11'5724.2
2018-May-08 13:30N 38°36' W 090°11'2 3.8
2018-May-08 13:00N 38°38' W 090°11'2142.4
2018-May-08 12:59N 38°36' W 090°11'4 9.8
2018-May-08 12:35N 38°33' W 090°15'451.8
2018-May-08 12:30N 38°36' W 090°11'415329.3
2018-May-08 12:30N 38°33' W 090°15'426.4
2018-May-08 12:21N 38°36' W 090°11'0 0.9
2018-May-08 12:00N 38°36' W 090°12'2109.8
2018-May-08 11:59N 38°35' W 090°13'310.4
2018-May-08 11:43N 38°32' W 090°15'0 0.0
2018-May-08 11:30N 38°32' W 090°15'0 8.7
2018-May-08 11:28N 38°33' W 090°15'1 9.2
2018-May-08 11:23N 38°32' W 090°16'0 1.2
2018-May-08 11:00N 38°32' W 090°15'0 0.0
2018-May-08 10:27N 38°32' W 090°15'0 0.0
2018-May-08 09:55N 38°32' W 090°15'0 0.0
2018-May-08 09:30N 38°32' W 090°15'0 0.0
2018-May-08 09:00N 38°32' W 090°15'0 0.0
2018-May-08 08:27N 38°32' W 090°15'0 0.0
2018-May-08 07:59N 38°32' W 090°15'4 7.1
2018-May-08 07:29N 38°35' W 090°13'418.5
2018-May-08 07:18N 38°32' W 090°15'0 0.0
2018-May-08 06:54N 38°32' W 090°15'518.4
2018-May-08 06:37N 38°36' W 090°11'0 0.5
2018-May-08 06:29N 38°36' W 090°11'5274.5
2018-May-08 06:28N 38°32' W 090°15'0 0.0
2018-May-08 05:53N 38°32' W 090°15'511.6
2018-May-08 05:26N 38°36' W 090°11'53749.3
2018-May-08 05:26N 38°32' W 090°15'511.3
2018-May-08 04:58N 38°37' W 090°11'4 7.3
2018-May-08 04:28N 38°40' W 090°11'9137.6
2018-May-08 04:24N 38°32' W 090°16'821.6
2018-May-08 04:00N 38°40' W 090°11'4 6.9
2018-May-08 03:30N 38°36' W 090°11'0 0.2
2018-May-08 01:22N 38°36' W 090°12'2 0.4
2018-May-07 20:24N 38°34' W 090°13'2 2.0
2018-May-07 19:18N 38°36' W 090°12'2 4.9
2018-May-07 18:59N 38°37' W 090°11'623.8
2018-May-07 18:45N 38°33' W 090°15'310.0
2018-May-07 18:26N 38°35' W 090°12'2 4.2
2018-May-07 18:00N 38°37' W 090°11'2 4.4
2018-May-07 17:33N 38°39' W 090°11'238.0
2018-May-07 17:30N 38°37' W 090°11'128.9
2018-May-07 17:27N 38°38' W 090°11'2 3.6
2018-May-07 16:57N 38°36' W 090°11'327.9
2018-May-07 16:51N 38°34' W 090°13'3 6.3
2018-May-07 16:27N 38°36' W 090°11'314.6
2018-May-07 16:17N 38°34' W 090°13'1 3.3
2018-May-07 16:00N 38°35' W 090°12'5123.3
2018-May-07 15:57N 38°40' W 090°11'577.2
2018-May-07 15:53N 38°35' W 090°12'411.1
2018-May-07 15:30N 38°39' W 090°11'486.3
2018-May-07 15:27N 38°35' W 090°12'0 0.2
2018-May-07 15:05N 38°35' W 090°12'119.7
2018-May-07 15:00N 38°36' W 090°11'1107.1
2018-May-07 15:00N 38°35' W 090°12'4 7.4
2018-May-07 14:30N 38°38' W 090°11'613.2
2018-May-07 14:02N 38°33' W 090°15'5185.4
2018-May-07 14:00N 38°37' W 090°11'246.5
2018-May-07 13:58N 38°35' W 090°12'1 3.5
2018-May-07 13:46N 38°36' W 090°12'1 2.6
2018-May-07 13:27N 38°35' W 090°12'216.3
2018-May-07 13:20N 38°36' W 090°11'0 0.1
2018-May-07 12:49N 38°37' W 090°11'0 0.0
2018-May-07 12:29N 38°37' W 090°11'2102.8
2018-May-07 12:28N 38°35' W 090°12'2289.4
2018-May-07 12:28N 38°37' W 090°11'3 5.0
2018-May-07 11:58N 38°35' W 090°13'3 1.9
2018-May-07 10:26N 38°32' W 090°15'4 6.0
2018-May-07 09:48N 38°35' W 090°12'0 0.0
2018-May-07 09:25N 38°35' W 090°12'0 0.5
2018-May-07 09:00N 38°35' W 090°12'0 0.0
2018-May-07 08:27N 38°35' W 090°12'0 0.0
2018-May-07 08:00N 38°35' W 090°12'0 0.0
2018-May-07 07:30N 38°35' W 090°12'0 0.0
2018-May-07 06:59N 38°35' W 090°12'0 0.0
2018-May-07 06:30N 38°35' W 090°12'0 0.0
2018-May-07 06:00N 38°35' W 090°12'0 0.3
2018-May-07 05:27N 38°35' W 090°13'1 1.4
2018-May-07 04:26N 38°34' W 090°14'113.5
2018-May-07 04:19N 38°35' W 090°13'441.8
2018-May-07 04:14N 38°32' W 090°16'523.0
2018-May-07 04:01N 38°36' W 090°12'280.7
2018-May-07 03:59N 38°38' W 090°11'748.0
2018-May-07 03:50N 38°32' W 090°16'922.0
2018-May-07 03:26N 38°40' W 090°11'982.5
2018-May-07 03:20N 38°32' W 090°16'721.4
2018-May-07 03:00N 38°38' W 090°11'7198.1
2018-May-07 02:58N 38°32' W 090°16'612.7
2018-May-07 02:30N 38°37' W 090°11'0 0.4
2018-May-07 02:06N 38°37' W 090°11'0 0.8
2018-May-07 02:00N 38°37' W 090°11'0 0.8
2018-May-07 01:55N 38°37' W 090°11'1 1.6
2018-May-07 01:30N 38°36' W 090°11'0 0.1
2018-May-06 21:36N 38°36' W 090°11'2 2.8
2018-May-06 20:44N 38°39' W 090°11'1 4.0
2018-May-06 20:30N 38°38' W 090°11'2 0.4
2018-May-06 15:38N 38°36' W 090°12'0 1.1
2018-May-06 15:30N 38°36' W 090°11'5 1.7
2018-May-06 12:38N 38°32' W 090°15'231.5
2018-May-06 12:34N 38°34' W 090°14'233.9
2018-May-06 12:31N 38°32' W 090°15'211.2
2018-May-06 12:20N 38°34' W 090°14'1 2.4
2018-May-06 12:01N 38°33' W 090°15'1 2.3
2018-May-06 11:32N 38°32' W 090°15'0 0.1
2018-May-06 11:29N 38°32' W 090°15'0 0.0
2018-May-06 10:37N 38°32' W 090°15'0 1.5
2018-May-06 10:22N 38°33' W 090°15'010.2
2018-May-06 10:20N 38°33' W 090°15'111.9
2018-May-06 10:17N 38°32' W 090°15'0 1.9
2018-May-06 10:15N 38°32' W 090°15'415.6
2018-May-06 10:01N 38°35' W 090°12'41571.7
2018-May-06 10:00N 38°32' W 090°15'413457.9
2018-May-06 10:00N 38°35' W 090°12'152.6
2018-May-06 09:59N 38°34' W 090°14'2 4.9
2018-May-06 09:30N 38°32' W 090°15'61863.4
2018-May-06 09:30N 38°37' W 090°11'3145.5
2018-May-06 09:29N 38°34' W 090°14'3668.7
2018-May-06 09:29N 38°37' W 090°11'0 0.1
2018-May-06 09:01N 38°37' W 090°11'3751.8
2018-May-06 09:00N 38°34' W 090°14'22201.2
2018-May-06 09:00N 38°32' W 090°15'61705.0
2018-May-06 09:00N 38°37' W 090°11'611.4
2018-May-06 08:30N 38°32' W 090°15'620452.6
2018-May-06 08:30N 38°37' W 090°11'3679.1
2018-May-06 08:30N 38°34' W 090°14'3541.3
2018-May-06 08:30N 38°37' W 090°11'0 0.2
2018-May-06 08:00N 38°37' W 090°11'6102.9
2018-May-06 07:57N 38°32' W 090°15'6101.9
2018-May-06 07:54N 38°37' W 090°11'0 0.0
2018-May-06 07:29N 38°37' W 090°11'6102.9
2018-May-06 07:26N 38°32' W 090°15'612.3
2018-May-06 06:58N 38°37' W 090°11'0 0.1
2018-May-06 06:25N 38°37' W 090°11'0 0.6
2018-May-06 06:21N 38°37' W 090°11'0 0.0
2018-May-06 05:54N 38°37' W 090°11'0 1.9
2018-May-06 05:46N 38°37' W 090°11'51037.9
2018-May-06 05:46N 38°32' W 090°15'520.6
2018-May-06 05:30N 38°37' W 090°11'5930.1
2018-May-06 05:30N 38°32' W 090°15'6 4.2
2018-May-06 04:03N 38°37' W 090°11'0 9.7
2018-May-06 04:00N 38°38' W 090°11'3 4.6
2018-May-06 03:26N 38°40' W 090°11'447.9
2018-May-06 03:21N 38°36' W 090°11'0 0.3
2018-May-06 03:01N 38°36' W 090°11'4251.4
2018-May-06 03:00N 38°40' W 090°11'840.4
2018-May-06 02:47N 38°32' W 090°15'726.1
2018-May-06 02:30N 38°39' W 090°11'288.2
2018-May-06 02:29N 38°37' W 090°11'0 1.0
2018-May-06 02:01N 38°37' W 090°11'022.4
2018-May-06 01:59N 38°37' W 090°11'0 0.5
2018-May-06 01:56N 38°37' W 090°11'0 0.7
2018-May-06 01:30N 38°37' W 090°11'0 0.1
2018-May-06 01:15N 38°37' W 090°11'011.8
2018-May-06 01:14N 38°36' W 090°11'0 1.4
2018-May-06 01:00N 38°37' W 090°11'011.7
2018-May-06 00:58N 38°37' W 090°11'1 2.1
2018-May-06 00:29N 38°36' W 090°11'122.2
2018-May-06 00:28N 38°36' W 090°11'4 1.8
2018-May-05 22:03N 38°33' W 090°15'2 7.9
2018-May-05 21:47N 38°35' W 090°13'111.7
2018-May-05 21:42N 38°35' W 090°12'2 2.8
2018-May-05 21:09N 38°37' W 090°11'0 0.0
2018-May-05 20:59N 38°37' W 090°11'0 0.0
2018-May-05 20:29N 38°37' W 090°11'0 0.0
2018-May-05 19:40N 38°37' W 090°11'0 7.7
2018-May-05 19:39N 38°37' W 090°11'0 0.4
2018-May-05 19:29N 38°37' W 090°11'0 0.1
2018-May-05 18:45N 38°37' W 090°11'0 0.0
2018-May-05 18:30N 38°37' W 090°11'1 2.6
2018-May-05 18:00N 38°35' W 090°12'  

Dump ship's entire track history